Heroic Leader — C6ZD2 — position and weather

sailwx.info

Track history (hours):
 
Tides and Currents Weather Stations Pressure Air Temp Water Temp Dewpoint Dewpoint Depression Visibility Wind Speed Wind Dir Waves Ship Positions

Heroic Leader

Last reported at 2016-May-28 04:33 UTC. Time now 2016-May-30 04:54 UTC.
Position N 18°31' W 066°08'.

Length 200 m; draft 9.5 m.

Type: Cargo ship. MMSI: 311052700.

Date/timePositionNaut miles runAvg speedWind from/ knotsBaromVisibWave heightAir tempDewpointWater temp
2016-May-28 04:33N 18°31' W 066°08'5 4.7
2016-May-28 03:25N 18°26' W 066°05'0 0.0
2016-May-28 02:28N 18°26' W 066°05'0 0.0
2016-May-28 01:33N 18°26' W 066°05'0 0.0
2016-May-28 00:31N 18°26' W 066°05'0 0.0
2016-May-27 23:32N 18°26' W 066°05'1 1.3
2016-May-27 22:33N 18°27' W 066°06'7 6.7
2016-May-27 21:28N 18°34' W 066°08'  
2016-May-22 11:33N 37°02' W 029°01'1717.5
2016-May-22 10:33N 37°09' W 028°42'1717.2
2016-May-22 09:33N 37°17' W 028°22'1717.2
2016-May-22 08:33N 37°25' W 028°03'1817.9
2016-May-22 07:34N 37°33' W 027°43'1818.2
2016-May-22 06:33N 37°42' W 027°23'1817.9
2016-May-22 05:33N 37°50' W 027°02'1817.9
2016-May-22 04:33N 37°58' W 026°43'1818.3
2016-May-22 03:33N 38°08' W 026°23'1818.1
2016-May-22 02:33N 38°18' W 026°03'1818.1
2016-May-22 01:33N 38°28' W 025°45'1818.2
2016-May-22 00:33N 38°39' W 025°26'1917.8
2016-May-21 23:29N 38°51' W 025°06'1717.7
2016-May-21 22:32N 39°01' W 024°49'  
2016-May-19 08:24N 49°48' W 004°32'1517.7
2016-May-19 07:33N 49°55' W 004°12'1717.1
2016-May-19 06:34N 50°05' W 003°50'1615.5
2016-May-19 05:34N 50°13' W 003°30'1212.0
2016-May-19 04:34N 50°25' W 003°27'1110.8
2016-May-19 03:33N 50°24' W 003°10'1716.9
2016-May-19 02:33N 50°23' W 002°43'1917.7
2016-May-19 01:29N 50°22' W 002°13'6118.8
2016-May-18 22:15N 50°27' W 000°38'1216.9
2016-May-18 21:33N 50°30' W 000°20'1616.1
2016-May-18 20:33N 50°33' E 000°04'1515.0
2016-May-18 19:33N 50°37' E 000°27'3215.9
2016-May-18 17:33N 50°54' E 001°09'1717.0
2016-May-18 16:33N 51°06' E 001°29'1716.9
2016-May-18 15:34N 51°18' E 001°48'1716.5
2016-May-18 14:33N 51°31' E 002°04'1616.1
2016-May-18 13:33N 51°43' E 002°21'14816.4
2016-May-18 04:33N 53°34' E 005°01'  
Track history (hours):
 
Tides and Currents Weather Stations Pressure Air Temp Water Temp Dewpoint Dewpoint Depression Visibility Wind Speed Wind Dir Waves Ship Positions

Heroic Leader

Last reported at 2016-May-28 04:33 UTC. Time now 2016-May-30 04:54 UTC.
Position N 18°31' W 066°08'.

Length 200 m; draft 9.5 m.

Type: Cargo ship. MMSI: 311052700.

Date/timePositionNaut miles runAvg speedWind from/ knotsBaromVisibWave heightAir tempDewpointWater temp
2016-May-28 04:33N 18°31' W 066°08'5 4.7
2016-May-28 03:25N 18°26' W 066°05'0 0.0
2016-May-28 02:28N 18°26' W 066°05'0 0.0
2016-May-28 01:33N 18°26' W 066°05'0 0.0
2016-May-28 00:31N 18°26' W 066°05'0 0.0
2016-May-27 23:32N 18°26' W 066°05'1 1.3
2016-May-27 22:33N 18°27' W 066°06'7 6.7
2016-May-27 21:28N 18°34' W 066°08'  
2016-May-22 11:33N 37°02' W 029°01'1717.5
2016-May-22 10:33N 37°09' W 028°42'1717.2
2016-May-22 09:33N 37°17' W 028°22'1717.2
2016-May-22 08:33N 37°25' W 028°03'1817.9
2016-May-22 07:34N 37°33' W 027°43'1818.2
2016-May-22 06:33N 37°42' W 027°23'1817.9
2016-May-22 05:33N 37°50' W 027°02'1817.9
2016-May-22 04:33N 37°58' W 026°43'1818.3
2016-May-22 03:33N 38°08' W 026°23'1818.1
2016-May-22 02:33N 38°18' W 026°03'1818.1
2016-May-22 01:33N 38°28' W 025°45'1818.2
2016-May-22 00:33N 38°39' W 025°26'1917.8
2016-May-21 23:29N 38°51' W 025°06'1717.7
2016-May-21 22:32N 39°01' W 024°49'  
2016-May-19 08:24N 49°48' W 004°32'1517.7
2016-May-19 07:33N 49°55' W 004°12'1717.1
2016-May-19 06:34N 50°05' W 003°50'1615.5
2016-May-19 05:34N 50°13' W 003°30'1212.0
2016-May-19 04:34N 50°25' W 003°27'1110.8
2016-May-19 03:33N 50°24' W 003°10'1716.9
2016-May-19 02:33N 50°23' W 002°43'1917.7
2016-May-19 01:29N 50°22' W 002°13'6118.8
2016-May-18 22:15N 50°27' W 000°38'1216.9
2016-May-18 21:33N 50°30' W 000°20'1616.1
2016-May-18 20:33N 50°33' E 000°04'1515.0
2016-May-18 19:33N 50°37' E 000°27'3215.9
2016-May-18 17:33N 50°54' E 001°09'1717.0
2016-May-18 16:33N 51°06' E 001°29'1716.9
2016-May-18 15:34N 51°18' E 001°48'1716.5
2016-May-18 14:33N 51°31' E 002°04'1616.1
2016-May-18 13:33N 51°43' E 002°21'14816.4
2016-May-18 04:33N 53°34' E 005°01'  

Dump ship's entire track history